Jan Caribe — V2QD — position and weather

sailwx.info

Track history (hours):
 
Tides and Currents Weather Stations Pressure Air Temp Water Temp Dewpoint Dewpoint Depression Visibility Wind Speed Wind Dir Waves Ship Positions

Jan Caribe

Last reported at 2017-Oct-13 16:40 UTC. Time now 2017-Oct-22 15:42 UTC.
Position N 24°57' W 080°17'.
Warning: this ship's position is 8 days out of date.

Length 95 m; draft 4.8 m.

Type: Cargo ship. MMSI: 304010792.

Date/timePositionNaut miles runAvg speedWind from/ knotsBaromVisibWave heightAir tempDewpointWater temp
2017-Oct-13 16:40N 24°57' W 080°17'2 9.4
2017-Oct-13 16:30N 24°58' W 080°16'5 9.3
2017-Oct-13 16:00N 25°02' W 080°13'27 9.2
2017-Oct-13 13:01N 25°27' W 080°01'1 9.0
2017-Oct-13 12:55N 25°28' W 080°01'4 9.0
2017-Oct-13 12:30N 25°32' W 080°00'5 9.2
2017-Oct-13 12:00N 25°36' W 080°00'5 9.3
2017-Oct-13 11:30N 25°41' W 080°00'5 9.6
2017-Oct-13 11:00N 25°46' W 079°60'510.6
2017-Oct-13 10:30N 25°51' W 079°60'5 9.3
2017-Oct-13 10:00N 25°55' W 079°60'4 8.8
2017-Oct-13 09:30N 25°60' W 079°60'4 8.4
2017-Oct-13 09:00N 26°04' W 079°60'510.1
2017-Oct-13 08:30N 26°06' W 080°05'2 4.4
2017-Oct-13 08:00N 26°04' W 080°07'0 0.1
2017-Oct-13 07:30N 26°04' W 080°07'0 0.0
2017-Oct-13 07:00N 26°04' W 080°07'0 0.0
2017-Oct-13 06:30N 26°04' W 080°07'0 0.0
2017-Oct-13 06:00N 26°04' W 080°07'0 0.0
2017-Oct-13 05:30N 26°04' W 080°07'0 0.0
2017-Oct-13 05:00N 26°04' W 080°07'0 0.0
2017-Oct-13 04:30N 26°04' W 080°07'0 0.0
2017-Oct-13 04:00N 26°04' W 080°07'0 0.0
2017-Oct-13 03:30N 26°04' W 080°07'1 1.1
2017-Oct-13 03:00N 26°05' W 080°07'3 6.6
2017-Oct-13 02:30N 26°06' W 080°03'1 2.8
2017-Oct-13 02:00N 26°07' W 080°04'1 1.5
2017-Oct-13 01:22N 26°08' W 080°05'0 0.0
2017-Oct-13 00:52N 26°08' W 080°05'0 0.0
2017-Oct-13 00:22N 26°08' W 080°05'0 0.0
2017-Oct-12 23:55N 26°08' W 080°05'0 0.0
2017-Oct-12 23:25N 26°08' W 080°05'0 0.0
2017-Oct-12 22:52N 26°08' W 080°05'0 0.0
2017-Oct-12 22:25N 26°08' W 080°05'0 0.0
2017-Oct-12 21:55N 26°08' W 080°05'0 0.1
2017-Oct-12 21:25N 26°08' W 080°05'0 0.0
2017-Oct-12 20:55N 26°08' W 080°05'0 0.0
2017-Oct-12 20:25N 26°08' W 080°05'0 0.0
2017-Oct-12 19:55N 26°08' W 080°05'0 0.0
2017-Oct-12 19:25N 26°08' W 080°05'0 0.1
2017-Oct-12 18:58N 26°08' W 080°05'0 0.1
2017-Oct-12 18:28N 26°08' W 080°05'0 0.0
2017-Oct-12 17:58N 26°08' W 080°05'0 0.0
2017-Oct-12 17:28N 26°08' W 080°05'0 0.0
2017-Oct-12 16:58N 26°08' W 080°05'0 0.0
2017-Oct-12 16:25N 26°08' W 080°05'0 0.0
2017-Oct-12 15:58N 26°08' W 080°05'0 0.0
2017-Oct-12 15:28N 26°08' W 080°05'0 0.0
2017-Oct-12 14:58N 26°08' W 080°05'0 0.0
2017-Oct-12 14:25N 26°08' W 080°05'0 0.0
2017-Oct-12 13:58N 26°08' W 080°05'0 0.0
2017-Oct-12 13:25N 26°08' W 080°05'0 0.0
2017-Oct-12 12:58N 26°08' W 080°05'0 0.0
2017-Oct-12 12:28N 26°08' W 080°05'0 0.0
2017-Oct-12 11:55N 26°08' W 080°05'0 0.0
2017-Oct-12 11:28N 26°08' W 080°05'0 0.1
2017-Oct-12 10:58N 26°08' W 080°05'0 0.0
2017-Oct-12 10:28N 26°08' W 080°05'0 0.0
2017-Oct-12 09:58N 26°08' W 080°05'0 0.0
2017-Oct-12 09:28N 26°08' W 080°05'0 0.0
2017-Oct-12 08:49N 26°08' W 080°05'0 0.0
2017-Oct-12 08:28N 26°08' W 080°05'0 0.0
2017-Oct-12 07:58N 26°08' W 080°05'0 0.0
2017-Oct-12 07:19N 26°08' W 080°05'0 0.0
2017-Oct-12 06:58N 26°08' W 080°05'0 0.0
2017-Oct-12 06:25N 26°08' W 080°05'0 0.0
2017-Oct-12 05:49N 26°08' W 080°05'0 0.0
2017-Oct-12 05:19N 26°08' W 080°05'0 0.0
2017-Oct-12 04:49N 26°08' W 080°05'0 0.0
2017-Oct-12 04:16N 26°08' W 080°05'0 0.0
2017-Oct-12 03:52N 26°08' W 080°05'0 0.0
2017-Oct-12 03:22N 26°08' W 080°05'0 0.0
2017-Oct-12 02:52N 26°08' W 080°05'0 0.0
2017-Oct-12 02:22N 26°08' W 080°05'0 0.0
2017-Oct-12 01:52N 26°08' W 080°05'0 0.0
2017-Oct-12 01:22N 26°08' W 080°05'0 0.0
2017-Oct-12 00:52N 26°08' W 080°05'0 0.0
2017-Oct-12 00:22N 26°08' W 080°05'0 0.0
2017-Oct-11 23:52N 26°08' W 080°05'0 0.0
2017-Oct-11 23:22N 26°08' W 080°05'0 0.0
2017-Oct-11 22:52N 26°08' W 080°05'0 0.9
2017-Oct-11 22:30N 26°07' W 080°05'3 5.7
2017-Oct-11 22:00N 26°05' W 080°07'0 0.3
2017-Oct-11 21:30N 26°05' W 080°07'0 0.0
2017-Oct-11 21:00N 26°05' W 080°07'0 0.0
2017-Oct-11 20:30N 26°05' W 080°07'0 0.0
2017-Oct-11 20:00N 26°05' W 080°07'0 0.0
2017-Oct-11 19:30N 26°05' W 080°07'0 0.0
2017-Oct-11 19:00N 26°05' W 080°07'0 0.0
2017-Oct-11 18:30N 26°05' W 080°07'0 0.0
2017-Oct-11 18:00N 26°05' W 080°07'0 0.0
2017-Oct-11 17:30N 26°05' W 080°07'0 0.0
2017-Oct-11 17:00N 26°05' W 080°07'1 0.1
2017-Oct-10 23:58N 26°04' W 080°07'0 0.0
2017-Oct-10 23:28N 26°04' W 080°07'0 0.0
2017-Oct-10 22:58N 26°04' W 080°07'0 0.0
2017-Oct-10 22:30N 26°04' W 080°07'0 0.0
2017-Oct-10 22:00N 26°04' W 080°07'0 0.0
2017-Oct-10 21:30N 26°04' W 080°07'0 0.0
2017-Oct-10 21:00N 26°04' W 080°07'0 0.0
2017-Oct-10 20:30N 26°04' W 080°07'0 0.0
2017-Oct-10 20:00N 26°04' W 080°07'0 0.0
2017-Oct-10 19:30N 26°04' W 080°07'0 0.0
2017-Oct-10 19:00N 26°04' W 080°07'0 0.0
2017-Oct-10 18:30N 26°04' W 080°07'0 0.0
2017-Oct-10 17:58N 26°04' W 080°07'0 0.0
2017-Oct-10 17:30N 26°04' W 080°07'0 0.0
2017-Oct-10 16:36N 26°04' W 080°07'0 0.1
2017-Oct-10 16:30N 26°04' W 080°07'3 5.4
2017-Oct-10 16:00N 26°05' W 080°04'3 6.2
2017-Oct-10 15:29N 26°03' W 080°02'3 7.2
2017-Oct-10 15:00N 25°59' W 080°00'1413.9
2017-Oct-10 14:00N 25°46' W 080°00'815.0
2017-Oct-10 13:30N 25°38' W 080°00'714.9
2017-Oct-10 13:00N 25°31' W 080°01'6313.1
2017-Oct-10 08:13N 24°35' W 080°32'311.5
2017-Oct-10 08:00N 24°33' W 080°34'  
Track history (hours):
 
Tides and Currents Weather Stations Pressure Air Temp Water Temp Dewpoint Dewpoint Depression Visibility Wind Speed Wind Dir Waves Ship Positions

Jan Caribe

Last reported at 2017-Oct-13 16:40 UTC. Time now 2017-Oct-22 15:42 UTC.
Position N 24°57' W 080°17'.
Warning: this ship's position is 8 days out of date.

Length 95 m; draft 4.8 m.

Type: Cargo ship. MMSI: 304010792.

Date/timePositionNaut miles runAvg speedWind from/ knotsBaromVisibWave heightAir tempDewpointWater temp
2017-Oct-13 16:40N 24°57' W 080°17'2 9.4
2017-Oct-13 16:30N 24°58' W 080°16'5 9.3
2017-Oct-13 16:00N 25°02' W 080°13'27 9.2
2017-Oct-13 13:01N 25°27' W 080°01'1 9.0
2017-Oct-13 12:55N 25°28' W 080°01'4 9.0
2017-Oct-13 12:30N 25°32' W 080°00'5 9.2
2017-Oct-13 12:00N 25°36' W 080°00'5 9.3
2017-Oct-13 11:30N 25°41' W 080°00'5 9.6
2017-Oct-13 11:00N 25°46' W 079°60'510.6
2017-Oct-13 10:30N 25°51' W 079°60'5 9.3
2017-Oct-13 10:00N 25°55' W 079°60'4 8.8
2017-Oct-13 09:30N 25°60' W 079°60'4 8.4
2017-Oct-13 09:00N 26°04' W 079°60'510.1
2017-Oct-13 08:30N 26°06' W 080°05'2 4.4
2017-Oct-13 08:00N 26°04' W 080°07'0 0.1
2017-Oct-13 07:30N 26°04' W 080°07'0 0.0
2017-Oct-13 07:00N 26°04' W 080°07'0 0.0
2017-Oct-13 06:30N 26°04' W 080°07'0 0.0
2017-Oct-13 06:00N 26°04' W 080°07'0 0.0
2017-Oct-13 05:30N 26°04' W 080°07'0 0.0
2017-Oct-13 05:00N 26°04' W 080°07'0 0.0
2017-Oct-13 04:30N 26°04' W 080°07'0 0.0
2017-Oct-13 04:00N 26°04' W 080°07'0 0.0
2017-Oct-13 03:30N 26°04' W 080°07'1 1.1
2017-Oct-13 03:00N 26°05' W 080°07'3 6.6
2017-Oct-13 02:30N 26°06' W 080°03'1 2.8
2017-Oct-13 02:00N 26°07' W 080°04'1 1.5
2017-Oct-13 01:22N 26°08' W 080°05'0 0.0
2017-Oct-13 00:52N 26°08' W 080°05'0 0.0
2017-Oct-13 00:22N 26°08' W 080°05'0 0.0
2017-Oct-12 23:55N 26°08' W 080°05'0 0.0
2017-Oct-12 23:25N 26°08' W 080°05'0 0.0
2017-Oct-12 22:52N 26°08' W 080°05'0 0.0
2017-Oct-12 22:25N 26°08' W 080°05'0 0.0
2017-Oct-12 21:55N 26°08' W 080°05'0 0.1
2017-Oct-12 21:25N 26°08' W 080°05'0 0.0
2017-Oct-12 20:55N 26°08' W 080°05'0 0.0
2017-Oct-12 20:25N 26°08' W 080°05'0 0.0
2017-Oct-12 19:55N 26°08' W 080°05'0 0.0
2017-Oct-12 19:25N 26°08' W 080°05'0 0.1
2017-Oct-12 18:58N 26°08' W 080°05'0 0.1
2017-Oct-12 18:28N 26°08' W 080°05'0 0.0
2017-Oct-12 17:58N 26°08' W 080°05'0 0.0
2017-Oct-12 17:28N 26°08' W 080°05'0 0.0
2017-Oct-12 16:58N 26°08' W 080°05'0 0.0
2017-Oct-12 16:25N 26°08' W 080°05'0 0.0
2017-Oct-12 15:58N 26°08' W 080°05'0 0.0
2017-Oct-12 15:28N 26°08' W 080°05'0 0.0
2017-Oct-12 14:58N 26°08' W 080°05'0 0.0
2017-Oct-12 14:25N 26°08' W 080°05'0 0.0
2017-Oct-12 13:58N 26°08' W 080°05'0 0.0
2017-Oct-12 13:25N 26°08' W 080°05'0 0.0
2017-Oct-12 12:58N 26°08' W 080°05'0 0.0
2017-Oct-12 12:28N 26°08' W 080°05'0 0.0
2017-Oct-12 11:55N 26°08' W 080°05'0 0.0
2017-Oct-12 11:28N 26°08' W 080°05'0 0.1
2017-Oct-12 10:58N 26°08' W 080°05'0 0.0
2017-Oct-12 10:28N 26°08' W 080°05'0 0.0
2017-Oct-12 09:58N 26°08' W 080°05'0 0.0
2017-Oct-12 09:28N 26°08' W 080°05'0 0.0
2017-Oct-12 08:49N 26°08' W 080°05'0 0.0
2017-Oct-12 08:28N 26°08' W 080°05'0 0.0
2017-Oct-12 07:58N 26°08' W 080°05'0 0.0
2017-Oct-12 07:19N 26°08' W 080°05'0 0.0
2017-Oct-12 06:58N 26°08' W 080°05'0 0.0
2017-Oct-12 06:25N 26°08' W 080°05'0 0.0
2017-Oct-12 05:49N 26°08' W 080°05'0 0.0
2017-Oct-12 05:19N 26°08' W 080°05'0 0.0
2017-Oct-12 04:49N 26°08' W 080°05'0 0.0
2017-Oct-12 04:16N 26°08' W 080°05'0 0.0
2017-Oct-12 03:52N 26°08' W 080°05'0 0.0
2017-Oct-12 03:22N 26°08' W 080°05'0 0.0
2017-Oct-12 02:52N 26°08' W 080°05'0 0.0
2017-Oct-12 02:22N 26°08' W 080°05'0 0.0
2017-Oct-12 01:52N 26°08' W 080°05'0 0.0
2017-Oct-12 01:22N 26°08' W 080°05'0 0.0
2017-Oct-12 00:52N 26°08' W 080°05'0 0.0
2017-Oct-12 00:22N 26°08' W 080°05'0 0.0
2017-Oct-11 23:52N 26°08' W 080°05'0 0.0
2017-Oct-11 23:22N 26°08' W 080°05'0 0.0
2017-Oct-11 22:52N 26°08' W 080°05'0 0.9
2017-Oct-11 22:30N 26°07' W 080°05'3 5.7
2017-Oct-11 22:00N 26°05' W 080°07'0 0.3
2017-Oct-11 21:30N 26°05' W 080°07'0 0.0
2017-Oct-11 21:00N 26°05' W 080°07'0 0.0
2017-Oct-11 20:30N 26°05' W 080°07'0 0.0
2017-Oct-11 20:00N 26°05' W 080°07'0 0.0
2017-Oct-11 19:30N 26°05' W 080°07'0 0.0
2017-Oct-11 19:00N 26°05' W 080°07'0 0.0
2017-Oct-11 18:30N 26°05' W 080°07'0 0.0
2017-Oct-11 18:00N 26°05' W 080°07'0 0.0
2017-Oct-11 17:30N 26°05' W 080°07'0 0.0
2017-Oct-11 17:00N 26°05' W 080°07'1 0.1
2017-Oct-10 23:58N 26°04' W 080°07'0 0.0
2017-Oct-10 23:28N 26°04' W 080°07'0 0.0
2017-Oct-10 22:58N 26°04' W 080°07'0 0.0
2017-Oct-10 22:30N 26°04' W 080°07'0 0.0
2017-Oct-10 22:00N 26°04' W 080°07'0 0.0
2017-Oct-10 21:30N 26°04' W 080°07'0 0.0
2017-Oct-10 21:00N 26°04' W 080°07'0 0.0
2017-Oct-10 20:30N 26°04' W 080°07'0 0.0
2017-Oct-10 20:00N 26°04' W 080°07'0 0.0
2017-Oct-10 19:30N 26°04' W 080°07'0 0.0
2017-Oct-10 19:00N 26°04' W 080°07'0 0.0
2017-Oct-10 18:30N 26°04' W 080°07'0 0.0
2017-Oct-10 17:58N 26°04' W 080°07'0 0.0
2017-Oct-10 17:30N 26°04' W 080°07'0 0.0
2017-Oct-10 16:36N 26°04' W 080°07'0 0.1
2017-Oct-10 16:30N 26°04' W 080°07'3 5.4
2017-Oct-10 16:00N 26°05' W 080°04'3 6.2
2017-Oct-10 15:29N 26°03' W 080°02'3 7.2
2017-Oct-10 15:00N 25°59' W 080°00'1413.9
2017-Oct-10 14:00N 25°46' W 080°00'815.0
2017-Oct-10 13:30N 25°38' W 080°00'714.9
2017-Oct-10 13:00N 25°31' W 080°01'6313.1
2017-Oct-10 08:13N 24°35' W 080°32'311.5
2017-Oct-10 08:00N 24°33' W 080°34'  

Dump ship's entire track history